createdAt,value
2023-05-12T00:00:26.169Z,99189.06
2023-05-12T00:02:53.261Z,99193.27
2023-05-12T00:05:20.598Z,99193.74
2023-05-12T00:07:47.670Z,99192.03
2023-05-12T00:10:14.747Z,99193.76
2023-05-12T00:12:42.313Z,99193.23
2023-05-12T00:15:09.983Z,99196.33
2023-05-12T00:17:37.198Z,99201.65
2023-05-12T00:20:04.841Z,99202.14
2023-05-12T00:22:31.950Z,99202.22
2023-05-12T00:24:58.920Z,99206.80
2023-05-12T00:27:25.931Z,99200.07
2023-05-12T00:29:53.014Z,99202.83
2023-05-12T00:32:20.186Z,99206.34
2023-05-12T00:34:47.325Z,99205.50
2023-05-12T00:37:14.436Z,99204.98
2023-05-12T00:39:41.778Z,99205.05
2023-05-12T00:42:09.144Z,99205.23
2023-05-12T00:44:37.202Z,99209.40
2023-05-12T00:47:04.987Z,99204.92
2023-05-12T00:49:32.751Z,99207.27
2023-05-12T00:51:59.882Z,99210.96
2023-05-12T00:54:27.378Z,99214.01
2023-05-12T00:56:54.987Z,99216.34
2023-05-12T00:59:23.094Z,99217.65
2023-05-12T01:01:50.248Z,99219.03
2023-05-12T01:04:17.478Z,99213.98
2023-05-12T01:06:49.704Z,99212.59
2023-05-12T01:09:17.321Z,99213.50
2023-05-12T01:11:44.557Z,99214.50
2023-05-12T01:14:11.844Z,99218.15
2023-05-12T01:16:56.209Z,99216.91
2023-05-12T01:19:50.744Z,99218.08
2023-05-12T01:22:18.187Z,99221.33
2023-05-12T01:24:50.287Z,99223.85
2023-05-12T01:27:18.241Z,99225.96
2023-05-12T01:29:46.822Z,99229.88
2023-05-12T01:32:15.154Z,99230.39
2023-05-12T01:34:42.950Z,99225.14
2023-05-12T01:37:10.625Z,99225.74
2023-05-12T01:39:38.087Z,99224.85
2023-05-12T01:42:06.882Z,99226.10
2023-05-12T01:44:34.595Z,99226.67
2023-05-12T01:47:02.220Z,99230.41
2023-05-12T01:49:30.025Z,99232.58
2023-05-12T01:51:57.257Z,99235.63
2023-05-12T01:54:29.523Z,99234.63
2023-05-12T01:56:56.484Z,99234.40
2023-05-12T01:59:24.036Z,99238.36
2023-05-12T02:01:51.717Z,99235.73
2023-05-12T02:05:21.111Z,99234.79
2023-05-12T02:07:50.995Z,99232.11
2023-05-12T02:10:19.023Z,99232.66
2023-05-12T02:12:46.410Z,99233.63
2023-05-12T02:15:13.672Z,99234.79
2023-05-12T02:17:45.710Z,99239.60
2023-05-12T02:20:13.134Z,99238.90
2023-05-12T02:22:40.344Z,99236.96
2023-05-12T02:25:07.990Z,99238.92
2023-05-12T02:27:35.430Z,99239.00
2023-05-12T02:30:02.591Z,99243.08
2023-05-12T02:32:30.190Z,99244.73
2023-05-12T02:34:57.355Z,99235.41
2023-05-12T02:37:24.557Z,99235.87
2023-05-12T02:39:51.594Z,99241.89
2023-05-12T02:42:19.040Z,99240.45
2023-05-12T02:44:46.495Z,99241.33
2023-05-12T02:47:13.574Z,99243.73
2023-05-12T02:49:40.649Z,99248.56
2023-05-12T02:52:07.793Z,99245.95
2023-05-12T02:54:35.067Z,99249.79
2023-05-12T02:57:05.544Z,99249.12
2023-05-12T02:59:32.662Z,99245.70
2023-05-12T03:01:59.876Z,99244.32
2023-05-12T03:04:27.801Z,99244.92
2023-05-12T03:06:54.855Z,99244.62
2023-05-12T03:09:21.971Z,99244.44
2023-05-12T03:11:49.061Z,99243.74
2023-05-12T03:14:16.152Z,99242.45
2023-05-12T03:16:43.667Z,99241.52
2023-05-12T03:19:10.915Z,99240.66
2023-05-12T03:21:38.177Z,99242.05
2023-05-12T03:24:05.903Z,99238.19
2023-05-12T03:26:33.252Z,99239.16
2023-05-12T03:29:00.563Z,99237.37
2023-05-12T03:31:28.272Z,99238.30
2023-05-12T03:33:55.739Z,99246.91
2023-05-12T03:36:23.759Z,99253.08
2023-05-12T03:38:51.198Z,99256.45
2023-05-12T03:41:18.245Z,99256.34
2023-05-12T03:43:45.498Z,99256.95
2023-05-12T03:46:12.992Z,99251.75
2023-05-12T03:48:40.450Z,99250.94
2023-05-12T03:51:07.594Z,99253.62
2023-05-12T03:53:35.240Z,99252.35
2023-05-12T03:56:05.642Z,99255.33
2023-05-12T03:58:33.106Z,99256.02
2023-05-12T04:01:01.695Z,99254.23
2023-05-12T04:03:29.323Z,99254.59
2023-05-12T04:06:02.599Z,99254.80
2023-05-12T04:08:29.857Z,99255.80
2023-05-12T04:11:01.146Z,99254.14
2023-05-12T04:13:28.799Z,99257.00
2023-05-12T04:15:59.358Z,99257.08
2023-05-12T04:18:27.060Z,99261.84
2023-05-12T04:20:54.857Z,99264.14
2023-05-12T04:23:22.362Z,99262.48
2023-05-12T04:25:49.426Z,99262.48
2023-05-12T04:28:17.475Z,99265.38
2023-05-12T04:30:45.156Z,99264.79
2023-05-12T04:33:12.243Z,99264.48
2023-05-12T04:35:39.628Z,99265.64
2023-05-12T04:38:06.924Z,99268.06
2023-05-12T04:40:35.216Z,99265.27
2023-05-12T04:43:02.976Z,99268.17
2023-05-12T04:45:31.163Z,99261.44
2023-05-12T04:47:58.635Z,99268.13
2023-05-12T04:50:25.714Z,99265.23
2023-05-12T04:52:52.843Z,99265.57
2023-05-12T04:55:20.422Z,99260.27
2023-05-12T04:57:47.639Z,99258.70
2023-05-12T05:00:15.567Z,99262.46
2023-05-12T05:02:44.703Z,99261.43
2023-05-12T05:05:12.176Z,99260.16
2023-05-12T05:07:40.273Z,99261.23
2023-05-12T05:10:07.845Z,99265.85
2023-05-12T05:12:35.547Z,99259.58
2023-05-12T05:15:03.505Z,99261.03
2023-05-12T08:41:50.171Z,99290.23
2023-05-12T08:44:17.581Z,99293.70
2023-05-12T08:46:44.535Z,99285.02
2023-05-12T08:49:12.879Z,99289.26
2023-05-12T08:51:40.567Z,99282.61
2023-05-12T08:54:08.742Z,99290.81
2023-05-12T08:59:06.911Z,99286.23
2023-05-12T09:01:37.193Z,99286.49
2023-05-12T09:04:04.866Z,99288.59
2023-05-12T09:06:33.185Z,99285.30
2023-05-12T09:09:00.300Z,99287.04
2023-05-12T09:11:28.475Z,99291.05
2023-05-12T09:14:06.498Z,99295.10
2023-05-12T09:16:36.876Z,99287.54
2023-05-12T09:19:06.659Z,99290.62
2023-05-12T09:21:34.408Z,99287.03
2023-05-12T09:24:09.414Z,99285.64
2023-05-12T09:26:46.527Z,99284.79
2023-05-12T09:29:20.757Z,99289.37
2023-05-12T09:31:57.308Z,99293.18
2023-05-12T09:34:31.742Z,99290.30
2023-05-12T09:37:03.757Z,99289.69
2023-05-12T09:39:30.839Z,99293.35
2023-05-12T09:41:57.961Z,99287.75
2023-05-12T09:44:25.215Z,99288.23
2023-05-12T09:46:52.936Z,99286.76
2023-05-12T09:49:22.099Z,99288.45
2023-05-12T09:51:58.942Z,99279.20
2023-05-12T09:54:32.365Z,99281.73
2023-05-12T09:57:05.056Z,99280.17
2023-05-12T09:59:36.429Z,99278.52
2023-05-12T10:02:06.157Z,99280.17
2023-05-12T10:04:41.776Z,99280.11
2023-05-12T10:07:09.698Z,99276.48
2023-05-12T10:09:39.405Z,99275.00
2023-05-12T10:12:06.690Z,99271.73
2023-05-12T10:14:33.921Z,99270.52
2023-05-12T10:17:00.973Z,99268.33
2023-05-12T10:19:30.357Z,99264.24
2023-05-12T10:21:57.805Z,99260.71
2023-05-12T10:24:27.213Z,99262.22
2023-05-12T10:26:56.627Z,99263.52
2023-05-12T10:29:29.778Z,99261.63
2023-05-12T10:31:57.799Z,99260.73
2023-05-12T10:34:30.624Z,99258.70
2023-05-12T10:36:58.334Z,99256.73
2023-05-12T10:39:33.146Z,99258.46
2023-05-12T10:42:09.755Z,99257.14
2023-05-12T10:44:49.533Z,99251.40
2023-05-12T10:47:16.691Z,99241.40
2023-05-12T10:49:43.917Z,99239.59
2023-05-12T10:52:12.566Z,99237.04
2023-05-12T10:54:44.702Z,99231.92
2023-05-12T10:57:17.050Z,99241.64
2023-05-12T10:59:57.761Z,99242.19
2023-05-12T11:02:29.456Z,99241.13
2023-05-12T11:05:01.918Z,99244.16
2023-05-12T11:07:32.839Z,99247.36
2023-05-12T11:10:02.000Z,99247.64
2023-05-12T11:12:32.854Z,99244.35
2023-05-12T11:15:01.476Z,99242.69
2023-05-12T11:17:29.071Z,99247.82
2023-05-12T11:19:56.903Z,99247.84
2023-05-12T11:22:24.298Z,99242.19
2023-05-12T11:24:53.250Z,99241.64
2023-05-12T11:27:21.299Z,99240.59
2023-05-12T11:29:59.013Z,99244.66
2023-05-12T11:32:26.188Z,99244.06
2023-05-12T11:35:33.762Z,99241.81
2023-05-12T11:38:03.024Z,99239.14
2023-05-12T11:40:30.734Z,99230.97
2023-05-12T11:42:59.935Z,99236.03
2023-05-12T11:45:28.939Z,99239.16
2023-05-12T11:48:13.406Z,99231.94
2023-05-12T11:50:41.745Z,99228.12
2023-05-12T11:53:14.921Z,99219.61
2023-05-12T11:55:49.318Z,99226.44
2023-05-12T11:58:27.275Z,99222.98
2023-05-12T12:00:54.294Z,99224.33
2023-05-12T12:03:21.681Z,99228.96
2023-05-12T12:06:02.564Z,99221.55
2023-05-12T12:08:30.556Z,99222.30
2023-05-12T12:10:57.569Z,99221.73
2023-05-12T12:13:26.082Z,99228.55
2023-05-12T12:15:53.203Z,99235.40
2023-05-12T12:18:21.130Z,99232.20
2023-05-12T12:20:48.515Z,99231.96
2023-05-12T12:23:16.739Z,99229.30
2023-05-12T12:25:43.810Z,99222.52
2023-05-12T12:28:11.198Z,99221.41
2023-05-12T12:30:38.284Z,99217.63
2023-05-12T12:33:06.108Z,99224.60
2023-05-12T12:35:33.939Z,99226.07
2023-05-12T12:38:01.106Z,99227.88
2023-05-12T12:40:28.271Z,99221.36
2023-05-12T12:42:55.302Z,99213.11
2023-05-12T12:45:22.724Z,99208.55
2023-05-12T12:47:52.708Z,99210.90
2023-05-12T12:50:19.764Z,99212.79
2023-05-12T12:52:48.102Z,99205.93
2023-05-12T12:55:15.826Z,99207.95
2023-05-12T12:57:43.303Z,99202.17
2023-05-12T13:00:10.952Z,99205.76
2023-05-12T13:02:39.260Z,99205.48
2023-05-12T13:05:07.387Z,99204.30
2023-05-12T13:07:35.554Z,99201.05
2023-05-12T13:10:03.551Z,99199.92
2023-05-12T13:12:31.428Z,99194.15
2023-05-12T13:15:00.562Z,99193.36
2023-05-12T13:17:27.815Z,99190.16
2023-05-12T13:19:55.196Z,99187.38
2023-05-12T13:22:22.869Z,99188.75
2023-05-12T13:24:49.853Z,99190.25
2023-05-12T13:27:17.100Z,99188.02
2023-05-12T13:29:47.396Z,99186.91
2023-05-12T13:32:16.068Z,99192.00
2023-05-12T13:34:43.168Z,99194.48
2023-05-12T13:37:10.252Z,99198.67
2023-05-12T13:39:37.891Z,99199.48
2023-05-12T13:42:05.161Z,99198.66
2023-05-12T13:44:32.255Z,99188.21
2023-05-12T13:46:59.362Z,99184.77
2023-05-12T13:49:26.650Z,99186.45
2023-05-12T13:51:53.886Z,99185.75
2023-05-12T13:54:20.974Z,99178.28
2023-05-12T13:56:48.000Z,99175.36
2023-05-12T13:59:15.131Z,99174.77
2023-05-12T14:01:44.126Z,99175.58
2023-05-12T14:04:11.966Z,99174.85
2023-05-12T14:06:39.850Z,99171.60
2023-05-12T14:09:07.007Z,99174.18
2023-05-12T14:11:35.067Z,99171.54
2023-05-12T14:14:03.505Z,99175.02
2023-05-12T14:16:30.657Z,99171.27
2023-05-12T14:18:57.946Z,99172.92
2023-05-12T14:21:25.013Z,99172.78
2023-05-12T14:23:52.099Z,99171.52
2023-05-12T14:26:19.433Z,99167.98
2023-05-12T14:28:46.648Z,99166.10
2023-05-12T14:31:13.772Z,99160.28
2023-05-12T14:33:41.092Z,99165.17
2023-05-12T14:36:09.026Z,99161.04
2023-05-12T14:38:36.935Z,99159.97
2023-05-12T14:41:04.142Z,99163.41
2023-05-12T14:43:32.501Z,99167.52
2023-05-12T14:45:59.721Z,99165.63
2023-05-12T14:48:27.296Z,99163.60
2023-05-12T14:50:55.587Z,99164.41
2023-05-12T14:53:23.282Z,99163.84
2023-05-12T14:55:50.957Z,99169.06
2023-05-12T14:58:18.091Z,99176.23
2023-05-12T15:00:45.665Z,99172.48
2023-05-12T15:03:13.606Z,99171.29
2023-05-12T15:06:01.629Z,99170.31
2023-05-12T15:08:27.965Z,99168.74
2023-05-12T15:10:55.059Z,99167.14
2023-05-12T15:13:22.868Z,99166.24
2023-05-12T15:15:51.831Z,99161.27
2023-05-12T15:18:21.513Z,99160.54
2023-05-12T15:20:48.491Z,99161.96
2023-05-12T15:23:15.488Z,99155.27
2023-05-12T15:25:42.727Z,99152.92
2023-05-12T15:28:09.689Z,99151.48
2023-05-12T15:30:37.757Z,99158.98
2023-05-12T15:33:04.913Z,99157.88
2023-05-12T15:35:32.708Z,99158.85
2023-05-12T15:37:59.867Z,99158.39
2023-05-12T15:40:26.790Z,99159.61
2023-05-12T15:42:54.141Z,99156.41
2023-05-12T15:45:21.527Z,99154.11
2023-05-12T15:47:48.913Z,99157.07
2023-05-12T15:50:19.869Z,99155.74
2023-05-12T15:52:47.542Z,99154.66
2023-05-12T15:55:14.626Z,99155.37
2023-05-12T15:57:41.591Z,99155.20
2023-05-12T16:00:09.112Z,99157.08
2023-05-12T16:02:45.815Z,99158.64
2023-05-12T16:05:12.821Z,99155.58
2023-05-12T16:07:40.303Z,99158.66
2023-05-12T16:10:07.900Z,99154.80
2023-05-12T16:12:35.143Z,99155.55
2023-05-12T16:15:02.429Z,99154.92
2023-05-12T16:17:29.852Z,99154.98
2023-05-12T16:19:57.246Z,99153.96
2023-05-12T16:22:24.265Z,99158.33
2023-05-12T16:24:51.271Z,99155.92
2023-05-12T16:27:18.341Z,99156.44
2023-05-12T16:29:45.971Z,99160.37
2023-05-12T16:32:13.018Z,99159.77
2023-05-12T16:34:40.110Z,99156.27
2023-05-12T16:37:07.140Z,99157.36
2023-05-12T16:39:35.941Z,99159.21
2023-05-12T16:42:03.331Z,99161.19
2023-05-12T16:44:30.347Z,99157.60
2023-05-12T16:46:57.389Z,99159.37
2023-05-12T16:49:24.440Z,99160.51
2023-05-12T16:51:51.351Z,99160.55
2023-05-12T16:54:18.625Z,99161.63
2023-05-12T16:56:45.994Z,99163.45
2023-05-12T16:59:13.062Z,99164.47
2023-05-12T17:01:40.235Z,99161.99
2023-05-12T17:04:08.033Z,99163.17
2023-05-12T17:06:35.404Z,99165.65
2023-05-12T17:09:02.449Z,99164.80
2023-05-12T17:11:29.702Z,99171.48
2023-05-12T17:13:56.655Z,99173.48
2023-05-12T17:16:23.899Z,99170.27
2023-05-12T17:21:20.894Z,99177.80
2023-05-12T17:23:48.343Z,99170.08
2023-05-12T17:26:15.838Z,99173.31
2023-05-12T17:28:43.233Z,99175.05
2023-05-12T17:31:10.786Z,99175.48
2023-05-12T17:33:38.012Z,99176.77
2023-05-12T17:36:12.535Z,99174.18
2023-05-12T17:38:40.281Z,99176.45
2023-05-12T17:41:07.239Z,99177.06
2023-05-12T17:43:34.315Z,99183.92
2023-05-12T17:46:01.366Z,99182.79
2023-05-12T17:48:31.149Z,99185.15
2023-05-12T17:50:58.563Z,99186.27
2023-05-12T17:53:26.323Z,99188.59
2023-05-12T17:55:54.395Z,99186.83
2023-05-12T17:58:21.604Z,99190.70
2023-05-12T18:00:48.741Z,99194.13
2023-05-12T18:03:17.816Z,99194.39
2023-05-12T18:05:45.129Z,99193.73
2023-05-12T18:08:12.304Z,99191.91
2023-05-12T18:10:41.372Z,99191.69
2023-05-12T18:13:08.503Z,99199.15
2023-05-12T18:15:35.758Z,99202.07
2023-05-12T18:18:03.068Z,99205.17
2023-05-12T18:20:30.249Z,99206.80
2023-05-12T18:22:57.201Z,99208.20
2023-05-12T18:25:24.452Z,99212.98
2023-05-12T18:27:52.253Z,99220.15
2023-05-12T18:30:19.286Z,99220.66
2023-05-12T18:32:46.698Z,99223.67
2023-05-12T18:35:13.810Z,99231.83
2023-05-12T18:37:41.061Z,99231.23
2023-05-12T18:40:08.990Z,99230.13
2023-05-12T18:42:36.167Z,99236.80
2023-05-12T18:45:03.386Z,99238.75
2023-05-12T18:47:30.993Z,99238.13
2023-05-12T18:49:57.978Z,99241.31
2023-05-12T18:52:25.046Z,99237.54
2023-05-12T18:54:52.026Z,99244.98
2023-05-12T18:57:19.149Z,99247.73
2023-05-12T18:59:46.180Z,99251.83
2023-05-12T19:02:13.185Z,99251.41
2023-05-12T19:04:40.323Z,99250.39
2023-05-12T19:07:09.966Z,99251.27
2023-05-12T19:09:37.648Z,99254.98
2023-05-12T19:12:06.132Z,99252.91
2023-05-12T19:14:33.474Z,99257.11
2023-05-12T19:17:00.541Z,99257.05
2023-05-12T19:19:27.668Z,99253.17
2023-05-12T19:21:54.698Z,99258.20
2023-05-12T19:24:22.281Z,99259.71
2023-05-12T19:26:49.269Z,99259.59
2023-05-12T19:29:16.266Z,99260.66
2023-05-12T19:31:43.364Z,99263.98
2023-05-12T19:34:10.443Z,99261.39
2023-05-12T19:36:37.434Z,99261.44
2023-05-12T19:39:04.688Z,99259.74
2023-05-12T19:41:31.939Z,99262.02
2023-05-12T19:43:59.219Z,99263.20
2023-05-12T19:46:26.440Z,99264.80
2023-05-12T19:48:53.729Z,99266.33
2023-05-12T19:51:21.058Z,99263.56
2023-05-12T19:53:48.487Z,99267.08
2023-05-12T19:56:15.598Z,99264.48
2023-05-12T19:58:42.693Z,99265.03
2023-05-12T20:01:12.375Z,99264.94
2023-05-12T20:03:39.581Z,99267.56
2023-05-12T20:06:06.762Z,99267.75
2023-05-12T20:08:33.915Z,99265.23
2023-05-12T20:11:01.080Z,99264.69
2023-05-12T20:13:28.282Z,99266.29
2023-05-12T20:15:55.675Z,99266.00
2023-05-12T20:18:23.815Z,99266.50
2023-05-12T20:20:51.138Z,99269.17
2023-05-12T20:23:18.631Z,99270.16
2023-05-12T20:25:45.816Z,99269.80
2023-05-12T20:28:13.220Z,99266.85
2023-05-12T20:30:40.177Z,99268.14
2023-05-12T20:33:07.179Z,99267.40
2023-05-12T20:35:34.238Z,99268.66
2023-05-12T20:38:01.335Z,99272.55
2023-05-12T20:40:28.458Z,99271.82
2023-05-12T20:42:55.707Z,99273.56
2023-05-12T20:45:23.196Z,99274.98
2023-05-12T20:47:51.664Z,99272.02
2023-05-12T20:50:18.788Z,99273.20
2023-05-12T20:52:47.440Z,99276.38
2023-05-12T20:55:14.486Z,99275.77
2023-05-12T20:57:41.666Z,99280.00
2023-05-12T21:00:10.958Z,99281.34
2023-05-12T21:02:38.466Z,99280.76
2023-05-12T21:05:05.850Z,99281.98
2023-05-12T21:07:33.374Z,99280.42
2023-05-12T21:10:00.922Z,99280.07
2023-05-12T21:12:30.054Z,99282.34
2023-05-12T21:14:57.217Z,99282.27
2023-05-12T21:17:24.754Z,99278.05
2023-05-12T21:19:52.073Z,99282.38
2023-05-12T21:22:19.186Z,99285.42
2023-05-12T21:24:46.794Z,99283.64
2023-05-12T21:27:13.848Z,99285.42
2023-05-12T21:29:40.951Z,99283.55
2023-05-12T21:32:08.061Z,99287.77
2023-05-12T21:34:36.165Z,99286.20
2023-05-12T21:37:03.317Z,99291.84
2023-05-12T21:39:30.491Z,99292.98
2023-05-12T21:41:57.390Z,99292.34
2023-05-12T21:44:24.404Z,99293.91
2023-05-12T21:46:51.428Z,99294.71
2023-05-12T21:49:18.457Z,99296.14
2023-05-12T21:51:45.677Z,99297.48
2023-05-12T21:54:12.740Z,99299.41
2023-05-12T21:56:39.809Z,99297.08
2023-05-12T21:59:06.820Z,99293.36
2023-05-12T22:01:34.376Z,99294.83
2023-05-12T22:04:01.365Z,99291.89
2023-05-12T22:06:28.476Z,99294.90
2023-05-12T22:08:55.802Z,99295.27
2023-05-12T22:11:23.645Z,99295.20
2023-05-12T22:13:50.852Z,99298.13
2023-05-12T22:16:21.596Z,99297.95
2023-05-12T22:18:50.983Z,99303.00
2023-05-12T22:21:17.954Z,99297.83
2023-05-12T22:23:45.504Z,99295.52
2023-05-12T22:26:12.673Z,99292.65
2023-05-12T22:28:39.819Z,99292.11
2023-05-12T22:31:07.101Z,99295.72
2023-05-12T22:33:34.706Z,99295.92
2023-05-12T22:36:01.820Z,99295.16
2023-05-12T22:38:29.062Z,99294.11
2023-05-12T22:40:56.636Z,99295.11
2023-05-12T22:43:24.519Z,99291.16
2023-05-12T22:45:52.301Z,99295.27
2023-05-12T22:48:19.987Z,99289.31
2023-05-12T22:50:47.202Z,99290.58
2023-05-12T22:53:14.489Z,99290.21
2023-05-12T22:55:41.678Z,99290.10
2023-05-12T22:58:10.353Z,99292.61
2023-05-12T23:00:38.035Z,99294.42
2023-05-12T23:03:05.166Z,99286.91
2023-05-12T23:05:33.372Z,99284.84
2023-05-12T23:08:00.631Z,99287.77
2023-05-12T23:10:27.834Z,99286.75
2023-05-12T23:12:55.224Z,99284.15
2023-05-12T23:15:22.381Z,99285.81
2023-05-12T23:17:49.308Z,99283.48
2023-05-12T23:20:16.407Z,99285.56
2023-05-12T23:22:43.738Z,99283.35
2023-05-12T23:25:10.947Z,99287.11
2023-05-12T23:27:38.160Z,99288.98
2023-05-12T23:30:06.106Z,99289.33
2023-05-12T23:32:33.427Z,99291.23
2023-05-12T23:35:00.609Z,99287.34
2023-05-12T23:37:27.749Z,99290.38
2023-05-12T23:39:54.809Z,99294.27
2023-05-12T23:42:21.985Z,99289.87
2023-05-12T23:44:49.032Z,99290.55
2023-05-12T23:47:16.147Z,99293.20
2023-05-12T23:49:43.211Z,99294.52
2023-05-12T23:52:10.343Z,99291.44
2023-05-12T23:54:37.373Z,99290.12
2023-05-12T23:57:04.748Z,99291.32
2023-05-12T23:59:31.887Z,99290.44
